sensor_id;sensor_type;location;lat;lon;timestamp;P1;durP1;ratioP1;P2;durP2;ratioP2
2488;SDS011;1255;48.716;9.124;2023-07-28T00:01:36;2.60;;;2.20;;
2488;SDS011;1255;48.716;9.124;2023-07-28T00:04:03;2.23;;;1.90;;
2488;SDS011;1255;48.716;9.124;2023-07-28T00:06:32;1.97;;;1.77;;
2488;SDS011;1255;48.716;9.124;2023-07-28T00:09:00;2.00;;;1.83;;
2488;SDS011;1255;48.716;9.124;2023-07-28T00:11:27;3.07;;;2.00;;
2488;SDS011;1255;48.716;9.124;2023-07-28T00:13:53;2.43;;;2.20;;
2488;SDS011;1255;48.716;9.124;2023-07-28T00:16:20;2.40;;;1.83;;
2488;SDS011;1255;48.716;9.124;2023-07-28T00:18:47;2.63;;;2.33;;
2488;SDS011;1255;48.716;9.124;2023-07-28T00:21:13;2.40;;;2.03;;
2488;SDS011;1255;48.716;9.124;2023-07-28T00:23:40;2.60;;;1.77;;
2488;SDS011;1255;48.716;9.124;2023-07-28T00:26:08;2.90;;;2.00;;
2488;SDS011;1255;48.716;9.124;2023-07-28T00:28:35;2.10;;;1.90;;
2488;SDS011;1255;48.716;9.124;2023-07-28T00:31:02;3.13;;;2.30;;
2488;SDS011;1255;48.716;9.124;2023-07-28T00:33:29;2.20;;;2.00;;
2488;SDS011;1255;48.716;9.124;2023-07-28T00:35:55;2.40;;;2.00;;
2488;SDS011;1255;48.716;9.124;2023-07-28T00:38:22;2.60;;;2.40;;
2488;SDS011;1255;48.716;9.124;2023-07-28T00:40:49;2.53;;;2.33;;
2488;SDS011;1255;48.716;9.124;2023-07-28T00:43:17;2.23;;;2.03;;
2488;SDS011;1255;48.716;9.124;2023-07-28T00:45:44;2.73;;;2.00;;
2488;SDS011;1255;48.716;9.124;2023-07-28T00:48:12;2.20;;;1.90;;
2488;SDS011;1255;48.716;9.124;2023-07-28T00:50:40;3.30;;;2.20;;
2488;SDS011;1255;48.716;9.124;2023-07-28T00:53:08;2.30;;;2.00;;
2488;SDS011;1255;48.716;9.124;2023-07-28T00:55:35;2.10;;;1.90;;
2488;SDS011;1255;48.716;9.124;2023-07-28T00:58:01;2.10;;;1.90;;
2488;SDS011;1255;48.716;9.124;2023-07-28T01:00:29;2.07;;;1.77;;
2488;SDS011;1255;48.716;9.124;2023-07-28T01:02:56;2.30;;;2.00;;
2488;SDS011;1255;48.716;9.124;2023-07-28T01:05:25;2.33;;;2.00;;
2488;SDS011;1255;48.716;9.124;2023-07-28T01:07:57;2.60;;;2.07;;
2488;SDS011;1255;48.716;9.124;2023-07-28T01:10:30;2.30;;;2.00;;
2488;SDS011;1255;48.716;9.124;2023-07-28T01:12:57;3.37;;;2.30;;
2488;SDS011;1255;48.716;9.124;2023-07-28T01:15:24;2.77;;;2.50;;
2488;SDS011;1255;48.716;9.124;2023-07-28T01:17:52;2.40;;;1.80;;
2488;SDS011;1255;48.716;9.124;2023-07-28T01:20:19;2.40;;;1.90;;
2488;SDS011;1255;48.716;9.124;2023-07-28T01:22:52;2.83;;;2.40;;
2488;SDS011;1255;48.716;9.124;2023-07-28T01:25:42;2.20;;;2.00;;
2488;SDS011;1255;48.716;9.124;2023-07-28T01:28:16;2.70;;;1.60;;
2488;SDS011;1255;48.716;9.124;2023-07-28T01:30:43;1.97;;;1.57;;
2488;SDS011;1255;48.716;9.124;2023-07-28T01:33:11;3.23;;;1.87;;
2488;SDS011;1255;48.716;9.124;2023-07-28T01:35:39;2.13;;;1.93;;
2488;SDS011;1255;48.716;9.124;2023-07-28T01:38:06;3.20;;;2.07;;
2488;SDS011;1255;48.716;9.124;2023-07-28T01:40:33;2.20;;;2.00;;
2488;SDS011;1255;48.716;9.124;2023-07-28T01:42:59;2.27;;;2.07;;
2488;SDS011;1255;48.716;9.124;2023-07-28T01:45:28;2.37;;;2.17;;
2488;SDS011;1255;48.716;9.124;2023-07-28T01:47:54;2.20;;;2.00;;
2488;SDS011;1255;48.716;9.124;2023-07-28T01:50:21;2.30;;;2.10;;
2488;SDS011;1255;48.716;9.124;2023-07-28T01:52:48;2.47;;;1.90;;
2488;SDS011;1255;48.716;9.124;2023-07-28T01:55:15;2.27;;;1.90;;
2488;SDS011;1255;48.716;9.124;2023-07-28T01:57:49;3.17;;;2.40;;
2488;SDS011;1255;48.716;9.124;2023-07-28T02:00:17;2.73;;;2.10;;
2488;SDS011;1255;48.716;9.124;2023-07-28T02:02:45;2.20;;;2.00;;
2488;SDS011;1255;48.716;9.124;2023-07-28T02:05:12;2.70;;;2.23;;
2488;SDS011;1255;48.716;9.124;2023-07-28T02:07:39;1.80;;;1.60;;
2488;SDS011;1255;48.716;9.124;2023-07-28T02:10:06;2.90;;;1.87;;
2488;SDS011;1255;48.716;9.124;2023-07-28T02:12:33;2.57;;;2.37;;
2488;SDS011;1255;48.716;9.124;2023-07-28T02:15:00;2.07;;;1.60;;
2488;SDS011;1255;48.716;9.124;2023-07-28T02:17:27;2.30;;;1.70;;
2488;SDS011;1255;48.716;9.124;2023-07-28T02:19:55;2.50;;;2.10;;
2488;SDS011;1255;48.716;9.124;2023-07-28T02:22:22;2.10;;;1.90;;
2488;SDS011;1255;48.716;9.124;2023-07-28T02:24:48;2.20;;;1.83;;
2488;SDS011;1255;48.716;9.124;2023-07-28T02:27:15;2.40;;;2.20;;
2488;SDS011;1255;48.716;9.124;2023-07-28T02:29:42;1.93;;;1.70;;
2488;SDS011;1255;48.716;9.124;2023-07-28T02:32:09;1.93;;;1.70;;
2488;SDS011;1255;48.716;9.124;2023-07-28T02:34:35;2.33;;;2.13;;
2488;SDS011;1255;48.716;9.124;2023-07-28T02:37:04;2.47;;;2.17;;
2488;SDS011;1255;48.716;9.124;2023-07-28T02:39:31;2.57;;;2.10;;
2488;SDS011;1255;48.716;9.124;2023-07-28T02:41:57;2.27;;;2.07;;
2488;SDS011;1255;48.716;9.124;2023-07-28T02:44:24;2.00;;;1.73;;
2488;SDS011;1255;48.716;9.124;2023-07-28T02:46:51;3.57;;;2.20;;
2488;SDS011;1255;48.716;9.124;2023-07-28T02:49:17;2.10;;;1.90;;
2488;SDS011;1255;48.716;9.124;2023-07-28T02:51:44;2.53;;;2.07;;
2488;SDS011;1255;48.716;9.124;2023-07-28T02:54:12;2.20;;;2.00;;
2488;SDS011;1255;48.716;9.124;2023-07-28T02:56:39;2.63;;;2.00;;
2488;SDS011;1255;48.716;9.124;2023-07-28T02:59:06;2.50;;;2.30;;
2488;SDS011;1255;48.716;9.124;2023-07-28T03:01:33;2.73;;;2.10;;
2488;SDS011;1255;48.716;9.124;2023-07-28T03:04:00;2.27;;;1.90;;
2488;SDS011;1255;48.716;9.124;2023-07-28T03:06:27;1.77;;;1.60;;
2488;SDS011;1255;48.716;9.124;2023-07-28T03:08:54;2.70;;;2.00;;
2488;SDS011;1255;48.716;9.124;2023-07-28T03:11:22;3.03;;;1.77;;
2488;SDS011;1255;48.716;9.124;2023-07-28T03:13:49;2.70;;;2.07;;
2488;SDS011;1255;48.716;9.124;2023-07-28T03:16:15;2.07;;;1.87;;
2488;SDS011;1255;48.716;9.124;2023-07-28T03:18:42;2.97;;;2.07;;
2488;SDS011;1255;48.716;9.124;2023-07-28T03:21:09;1.80;;;1.63;;
2488;SDS011;1255;48.716;9.124;2023-07-28T03:23:35;2.07;;;1.87;;
2488;SDS011;1255;48.716;9.124;2023-07-28T03:26:02;1.73;;;1.63;;
2488;SDS011;1255;48.716;9.124;2023-07-28T03:28:30;2.37;;;2.17;;
2488;SDS011;1255;48.716;9.124;2023-07-28T03:30:57;2.87;;;2.17;;
2488;SDS011;1255;48.716;9.124;2023-07-28T03:33:24;3.00;;;2.47;;
2488;SDS011;1255;48.716;9.124;2023-07-28T03:35:50;1.90;;;1.80;;
2488;SDS011;1255;48.716;9.124;2023-07-28T03:38:17;2.27;;;1.80;;
2488;SDS011;1255;48.716;9.124;2023-07-28T03:40:44;3.10;;;2.00;;
2488;SDS011;1255;48.716;9.124;2023-07-28T03:43:11;2.43;;;2.23;;
2488;SDS011;1255;48.716;9.124;2023-07-28T03:45:39;2.40;;;2.10;;
2488;SDS011;1255;48.716;9.124;2023-07-28T03:48:06;2.50;;;2.30;;
2488;SDS011;1255;48.716;9.124;2023-07-28T03:50:33;2.80;;;2.37;;
2488;SDS011;1255;48.716;9.124;2023-07-28T03:53:00;2.53;;;1.50;;
2488;SDS011;1255;48.716;9.124;2023-07-28T03:55:27;1.77;;;1.67;;
2488;SDS011;1255;48.716;9.124;2023-07-28T03:57:53;2.40;;;1.77;;
2488;SDS011;1255;48.716;9.124;2023-07-28T04:00:20;2.13;;;1.77;;
2488;SDS011;1255;48.716;9.124;2023-07-28T04:02:48;1.70;;;1.50;;
2488;SDS011;1255;48.716;9.124;2023-07-28T04:05:15;3.97;;;2.07;;
2488;SDS011;1255;48.716;9.124;2023-07-28T04:07:42;2.73;;;2.40;;
2488;SDS011;1255;48.716;9.124;2023-07-28T04:10:08;2.10;;;1.90;;
2488;SDS011;1255;48.716;9.124;2023-07-28T04:12:35;2.60;;;2.40;;
2488;SDS011;1255;48.716;9.124;2023-07-28T04:15:02;2.20;;;2.00;;
2488;SDS011;1255;48.716;9.124;2023-07-28T04:17:29;3.50;;;2.30;;
2488;SDS011;1255;48.716;9.124;2023-07-28T04:19:57;4.30;;;2.07;;
2488;SDS011;1255;48.716;9.124;2023-07-28T04:22:24;4.27;;;2.20;;
2488;SDS011;1255;48.716;9.124;2023-07-28T04:24:51;2.10;;;2.00;;
2488;SDS011;1255;48.716;9.124;2023-07-28T04:27:19;1.70;;;1.60;;
2488;SDS011;1255;48.716;9.124;2023-07-28T04:29:45;2.43;;;2.10;;
2488;SDS011;1255;48.716;9.124;2023-07-28T04:32:12;2.30;;;2.10;;
2488;SDS011;1255;48.716;9.124;2023-07-28T04:34:39;2.70;;;1.77;;
2488;SDS011;1255;48.716;9.124;2023-07-28T04:37:07;2.33;;;2.10;;
2488;SDS011;1255;48.716;9.124;2023-07-28T04:39:33;2.80;;;2.60;;
2488;SDS011;1255;48.716;9.124;2023-07-28T04:42:00;2.50;;;2.17;;
2488;SDS011;1255;48.716;9.124;2023-07-28T04:44:27;1.90;;;1.77;;
2488;SDS011;1255;48.716;9.124;2023-07-28T04:46:54;2.40;;;2.00;;
2488;SDS011;1255;48.716;9.124;2023-07-28T04:49:20;3.00;;;1.90;;
2488;SDS011;1255;48.716;9.124;2023-07-28T04:51:47;4.37;;;2.47;;
2488;SDS011;1255;48.716;9.124;2023-07-28T04:54:15;2.80;;;2.07;;
2488;SDS011;1255;48.716;9.124;2023-07-28T04:56:42;1.97;;;1.70;;
2488;SDS011;1255;48.716;9.124;2023-07-28T04:59:14;2.70;;;1.87;;
2488;SDS011;1255;48.716;9.124;2023-07-28T05:01:41;3.00;;;2.43;;
2488;SDS011;1255;48.716;9.124;2023-07-28T05:04:08;2.67;;;2.40;;
2488;SDS011;1255;48.716;9.124;2023-07-28T05:06:35;2.03;;;1.63;;
2488;SDS011;1255;48.716;9.124;2023-07-28T05:09:01;2.27;;;1.93;;
2488;SDS011;1255;48.716;9.124;2023-07-28T05:11:30;2.30;;;2.10;;
2488;SDS011;1255;48.716;9.124;2023-07-28T05:13:56;2.90;;;2.27;;
2488;SDS011;1255;48.716;9.124;2023-07-28T05:16:23;2.27;;;2.07;;
2488;SDS011;1255;48.716;9.124;2023-07-28T05:18:50;2.80;;;2.50;;
2488;SDS011;1255;48.716;9.124;2023-07-28T05:21:16;3.20;;;2.20;;
2488;SDS011;1255;48.716;9.124;2023-07-28T05:23:43;2.53;;;2.20;;
2488;SDS011;1255;48.716;9.124;2023-07-28T05:26:10;4.00;;;2.70;;
2488;SDS011;1255;48.716;9.124;2023-07-28T05:28:38;2.90;;;2.10;;
2488;SDS011;1255;48.716;9.124;2023-07-28T05:31:05;2.67;;;2.23;;
2488;SDS011;1255;48.716;9.124;2023-07-28T05:33:32;2.73;;;1.97;;
2488;SDS011;1255;48.716;9.124;2023-07-28T05:35:59;3.90;;;2.17;;
2488;SDS011;1255;48.716;9.124;2023-07-28T05:38:26;2.50;;;2.30;;
2488;SDS011;1255;48.716;9.124;2023-07-28T05:40:55;2.10;;;1.90;;
2488;SDS011;1255;48.716;9.124;2023-07-28T05:43:23;2.37;;;2.17;;
2488;SDS011;1255;48.716;9.124;2023-07-28T05:45:51;2.80;;;2.27;;
2488;SDS011;1255;48.716;9.124;2023-07-28T05:48:18;1.93;;;1.73;;
2488;SDS011;1255;48.716;9.124;2023-07-28T05:50:44;3.17;;;2.30;;
2488;SDS011;1255;48.716;9.124;2023-07-28T05:53:11;3.63;;;2.60;;
2488;SDS011;1255;48.716;9.124;2023-07-28T05:55:38;2.80;;;2.40;;
2488;SDS011;1255;48.716;9.124;2023-07-28T05:58:05;3.30;;;2.60;;
2488;SDS011;1255;48.716;9.124;2023-07-28T06:00:32;2.47;;;2.17;;
2488;SDS011;1255;48.716;9.124;2023-07-28T06:03:00;3.17;;;2.20;;
2488;SDS011;1255;48.716;9.124;2023-07-28T06:05:27;3.97;;;2.73;;
2488;SDS011;1255;48.716;9.124;2023-07-28T06:07:53;4.07;;;3.00;;
2488;SDS011;1255;48.716;9.124;2023-07-28T06:10:20;4.27;;;2.57;;
2488;SDS011;1255;48.716;9.124;2023-07-28T06:12:47;2.70;;;2.50;;
2488;SDS011;1255;48.716;9.124;2023-07-28T06:15:13;2.40;;;2.20;;
2488;SDS011;1255;48.716;9.124;2023-07-28T06:17:40;3.00;;;2.70;;
2488;SDS011;1255;48.716;9.124;2023-07-28T06:20:09;2.33;;;2.10;;
2488;SDS011;1255;48.716;9.124;2023-07-28T06:22:36;3.03;;;2.63;;
2488;SDS011;1255;48.716;9.124;2023-07-28T06:25:03;4.27;;;2.93;;
2488;SDS011;1255;48.716;9.124;2023-07-28T06:27:30;5.93;;;2.87;;
2488;SDS011;1255;48.716;9.124;2023-07-28T06:29:57;3.20;;;2.83;;
2488;SDS011;1255;48.716;9.124;2023-07-28T06:32:24;3.27;;;2.80;;
2488;SDS011;1255;48.716;9.124;2023-07-28T06:34:55;2.57;;;2.37;;
2488;SDS011;1255;48.716;9.124;2023-07-28T06:38:34;2.57;;;2.37;;
2488;SDS011;1255;48.716;9.124;2023-07-28T06:44:39;3.80;;;2.80;;
2488;SDS011;1255;48.716;9.124;2023-07-28T06:47:06;2.63;;;2.43;;
2488;SDS011;1255;48.716;9.124;2023-07-28T06:49:33;3.47;;;2.77;;
2488;SDS011;1255;48.716;9.124;2023-07-28T06:51:59;2.80;;;2.40;;
2488;SDS011;1255;48.716;9.124;2023-07-28T06:54:28;2.73;;;2.40;;
2488;SDS011;1255;48.716;9.124;2023-07-28T06:56:55;3.57;;;2.60;;
2488;SDS011;1255;48.716;9.124;2023-07-28T06:59:22;3.10;;;2.67;;
2488;SDS011;1255;48.716;9.124;2023-07-28T07:01:52;2.63;;;2.43;;
2488;SDS011;1255;48.716;9.124;2023-07-28T07:05:09;3.50;;;2.63;;
2488;SDS011;1255;48.716;9.124;2023-07-28T07:07:50;2.60;;;2.40;;
2488;SDS011;1255;48.716;9.124;2023-07-28T07:10:21;3.03;;;2.17;;
2488;SDS011;1255;48.716;9.124;2023-07-28T07:12:48;2.60;;;2.40;;
2488;SDS011;1255;48.716;9.124;2023-07-28T07:15:29;3.53;;;2.20;;
2488;SDS011;1255;48.716;9.124;2023-07-28T07:17:56;2.47;;;2.27;;
2488;SDS011;1255;48.716;9.124;2023-07-28T07:20:23;3.10;;;2.27;;
2488;SDS011;1255;48.716;9.124;2023-07-28T07:22:50;2.60;;;2.40;;
2488;SDS011;1255;48.716;9.124;2023-07-28T07:25:25;2.70;;;2.50;;
2488;SDS011;1255;48.716;9.124;2023-07-28T07:27:59;2.40;;;2.20;;
2488;SDS011;1255;48.716;9.124;2023-07-28T07:30:26;3.20;;;2.33;;
2488;SDS011;1255;48.716;9.124;2023-07-28T07:33:00;2.40;;;2.20;;
2488;SDS011;1255;48.716;9.124;2023-07-28T07:35:59;2.50;;;2.30;;
2488;SDS011;1255;48.716;9.124;2023-07-28T07:39:01;2.83;;;2.60;;
2488;SDS011;1255;48.716;9.124;2023-07-28T07:41:48;2.70;;;2.50;;
2488;SDS011;1255;48.716;9.124;2023-07-28T07:47:16;2.80;;;2.20;;
2488;SDS011;1255;48.716;9.124;2023-07-28T07:50:06;2.60;;;2.17;;
2488;SDS011;1255;48.716;9.124;2023-07-28T07:55:48;3.10;;;2.80;;
2488;SDS011;1255;48.716;9.124;2023-07-28T07:58:25;2.50;;;2.07;;
2488;SDS011;1255;48.716;9.124;2023-07-28T08:00:53;2.83;;;2.40;;
2488;SDS011;1255;48.716;9.124;2023-07-28T08:03:41;2.73;;;2.50;;
2488;SDS011;1255;48.716;9.124;2023-07-28T08:06:24;2.80;;;2.60;;
2488;SDS011;1255;48.716;9.124;2023-07-28T08:09:23;2.50;;;2.30;;
2488;SDS011;1255;48.716;9.124;2023-07-28T08:11:52;2.50;;;2.30;;
2488;SDS011;1255;48.716;9.124;2023-07-28T08:14:28;2.53;;;2.03;;
2488;SDS011;1255;48.716;9.124;2023-07-28T08:16:55;2.50;;;2.30;;
2488;SDS011;1255;48.716;9.124;2023-07-28T08:19:22;2.10;;;1.90;;
2488;SDS011;1255;48.716;9.124;2023-07-28T08:21:50;2.63;;;2.40;;
2488;SDS011;1255;48.716;9.124;2023-07-28T08:24:17;7.13;;;2.27;;
2488;SDS011;1255;48.716;9.124;2023-07-28T08:26:45;2.50;;;2.20;;
2488;SDS011;1255;48.716;9.124;2023-07-28T08:29:12;2.27;;;2.00;;
2488;SDS011;1255;48.716;9.124;2023-07-28T08:31:40;2.60;;;2.40;;
2488;SDS011;1255;48.716;9.124;2023-07-28T08:34:07;4.93;;;2.40;;
2488;SDS011;1255;48.716;9.124;2023-07-28T08:36:34;2.17;;;1.97;;
2488;SDS011;1255;48.716;9.124;2023-07-28T08:39:01;2.30;;;1.97;;
2488;SDS011;1255;48.716;9.124;2023-07-28T08:41:28;3.27;;;2.13;;
2488;SDS011;1255;48.716;9.124;2023-07-28T08:43:55;2.30;;;2.10;;
2488;SDS011;1255;48.716;9.124;2023-07-28T08:46:22;3.13;;;2.50;;
2488;SDS011;1255;48.716;9.124;2023-07-28T08:48:50;2.07;;;1.90;;
2488;SDS011;1255;48.716;9.124;2023-07-28T08:51:17;2.23;;;2.07;;
2488;SDS011;1255;48.716;9.124;2023-07-28T08:53:44;2.13;;;1.80;;
2488;SDS011;1255;48.716;9.124;2023-07-28T08:56:10;3.53;;;2.50;;
2488;SDS011;1255;48.716;9.124;2023-07-28T08:58:37;2.17;;;1.93;;
2488;SDS011;1255;48.716;9.124;2023-07-28T09:01:08;1.80;;;1.70;;
2488;SDS011;1255;48.716;9.124;2023-07-28T09:03:41;2.37;;;2.17;;
2488;SDS011;1255;48.716;9.124;2023-07-28T09:06:09;2.17;;;1.97;;
2488;SDS011;1255;48.716;9.124;2023-07-28T09:08:36;2.60;;;1.87;;
2488;SDS011;1255;48.716;9.124;2023-07-28T09:11:04;2.40;;;2.13;;
2488;SDS011;1255;48.716;9.124;2023-07-28T09:13:36;2.30;;;2.10;;
2488;SDS011;1255;48.716;9.124;2023-07-28T09:16:04;3.00;;;2.20;;
2488;SDS011;1255;48.716;9.124;2023-07-28T09:18:31;2.30;;;2.10;;
2488;SDS011;1255;48.716;9.124;2023-07-28T09:20:58;4.50;;;1.73;;
2488;SDS011;1255;48.716;9.124;2023-07-28T09:23:30;1.70;;;1.60;;
2488;SDS011;1255;48.716;9.124;2023-07-28T09:25:59;2.17;;;1.97;;
2488;SDS011;1255;48.716;9.124;2023-07-28T09:28:35;3.10;;;2.03;;
2488;SDS011;1255;48.716;9.124;2023-07-28T09:31:04;2.10;;;1.90;;
2488;SDS011;1255;48.716;9.124;2023-07-28T09:33:32;2.50;;;2.03;;
2488;SDS011;1255;48.716;9.124;2023-07-28T09:36:06;1.83;;;1.40;;
2488;SDS011;1255;48.716;9.124;2023-07-28T09:38:37;2.97;;;2.07;;
2488;SDS011;1255;48.716;9.124;2023-07-28T09:41:05;2.87;;;2.03;;
2488;SDS011;1255;48.716;9.124;2023-07-28T09:43:34;3.60;;;1.87;;
2488;SDS011;1255;48.716;9.124;2023-07-28T09:46:03;1.70;;;1.60;;
2488;SDS011;1255;48.716;9.124;2023-07-28T09:48:32;4.70;;;2.33;;
2488;SDS011;1255;48.716;9.124;2023-07-28T09:51:00;2.60;;;2.40;;
2488;SDS011;1255;48.716;9.124;2023-07-28T09:53:48;2.50;;;2.30;;
2488;SDS011;1255;48.716;9.124;2023-07-28T09:56:19;2.40;;;2.20;;
2488;SDS011;1255;48.716;9.124;2023-07-28T09:58:53;1.90;;;1.70;;
2488;SDS011;1255;48.716;9.124;2023-07-28T10:01:21;2.20;;;1.90;;
2488;SDS011;1255;48.716;9.124;2023-07-28T10:03:49;2.07;;;1.87;;
2488;SDS011;1255;48.716;9.124;2023-07-28T10:06:16;2.70;;;1.90;;
2488;SDS011;1255;48.716;9.124;2023-07-28T10:08:44;2.17;;;1.97;;
2488;SDS011;1255;48.716;9.124;2023-07-28T10:11:14;2.27;;;1.70;;
2488;SDS011;1255;48.716;9.124;2023-07-28T10:13:42;2.77;;;2.53;;
2488;SDS011;1255;48.716;9.124;2023-07-28T10:16:11;2.40;;;2.00;;
2488;SDS011;1255;48.716;9.124;2023-07-28T10:18:39;2.57;;;1.90;;
2488;SDS011;1255;48.716;9.124;2023-07-28T10:21:08;2.10;;;1.90;;
2488;SDS011;1255;48.716;9.124;2023-07-28T10:26:36;2.20;;;1.87;;
2488;SDS011;1255;48.716;9.124;2023-07-28T10:29:10;1.60;;;1.40;;
2488;SDS011;1255;48.716;9.124;2023-07-28T10:31:42;1.43;;;1.20;;
2488;SDS011;1255;48.716;9.124;2023-07-28T10:34:16;1.37;;;1.27;;
2488;SDS011;1255;48.716;9.124;2023-07-28T10:36:43;2.20;;;1.40;;
2488;SDS011;1255;48.716;9.124;2023-07-28T10:39:16;1.77;;;1.53;;
2488;SDS011;1255;48.716;9.124;2023-07-28T10:42:03;1.40;;;1.30;;
2488;SDS011;1255;48.716;9.124;2023-07-28T10:44:31;1.50;;;1.40;;
2488;SDS011;1255;48.716;9.124;2023-07-28T10:46:59;1.53;;;1.27;;
2488;SDS011;1255;48.716;9.124;2023-07-28T10:49:27;1.57;;;1.47;;
2488;SDS011;1255;48.716;9.124;2023-07-28T10:51:55;1.40;;;1.30;;
2488;SDS011;1255;48.716;9.124;2023-07-28T10:54:23;1.60;;;1.40;;
2488;SDS011;1255;48.716;9.124;2023-07-28T10:56:50;1.87;;;1.40;;
2488;SDS011;1255;48.716;9.124;2023-07-28T10:59:16;1.87;;;1.50;;
2488;SDS011;1255;48.716;9.124;2023-07-28T11:01:43;1.67;;;1.47;;
2488;SDS011;1255;48.716;9.124;2023-07-28T11:04:10;1.67;;;1.53;;
2488;SDS011;1255;48.716;9.124;2023-07-28T11:06:40;2.27;;;1.70;;
2488;SDS011;1255;48.716;9.124;2023-07-28T11:09:08;1.80;;;1.70;;
2488;SDS011;1255;48.716;9.124;2023-07-28T11:11:37;1.93;;;1.73;;
2488;SDS011;1255;48.716;9.124;2023-07-28T11:14:04;1.77;;;1.40;;
2488;SDS011;1255;48.716;9.124;2023-07-28T11:16:33;2.10;;;1.77;;
2488;SDS011;1255;48.716;9.124;2023-07-28T11:19:01;1.67;;;1.53;;
2488;SDS011;1255;48.716;9.124;2023-07-28T11:21:28;1.57;;;1.30;;
2488;SDS011;1255;48.716;9.124;2023-07-28T11:23:55;1.83;;;1.50;;
2488;SDS011;1255;48.716;9.124;2023-07-28T11:26:22;3.20;;;1.70;;
2488;SDS011;1255;48.716;9.124;2023-07-28T11:28:51;1.97;;;1.87;;
2488;SDS011;1255;48.716;9.124;2023-07-28T11:31:22;1.80;;;1.53;;
2488;SDS011;1255;48.716;9.124;2023-07-28T11:33:50;2.00;;;1.80;;
2488;SDS011;1255;48.716;9.124;2023-07-28T11:36:21;2.40;;;2.07;;
2488;SDS011;1255;48.716;9.124;2023-07-28T11:38:48;3.40;;;1.83;;
2488;SDS011;1255;48.716;9.124;2023-07-28T11:41:16;2.20;;;2.00;;
2488;SDS011;1255;48.716;9.124;2023-07-28T11:43:43;2.00;;;1.80;;
2488;SDS011;1255;48.716;9.124;2023-07-28T11:49:06;1.97;;;1.70;;
2488;SDS011;1255;48.716;9.124;2023-07-28T11:51:36;2.10;;;1.80;;
2488;SDS011;1255;48.716;9.124;2023-07-28T11:54:04;2.53;;;2.30;;
2488;SDS011;1255;48.716;9.124;2023-07-28T11:56:32;2.07;;;1.87;;
2488;SDS011;1255;48.716;9.124;2023-07-28T11:59:00;2.20;;;2.00;;
2488;SDS011;1255;48.716;9.124;2023-07-28T12:01:28;2.37;;;2.00;;
2488;SDS011;1255;48.716;9.124;2023-07-28T12:03:56;2.50;;;2.10;;
2488;SDS011;1255;48.716;9.124;2023-07-28T12:06:25;2.37;;;2.17;;
2488;SDS011;1255;48.716;9.124;2023-07-28T12:08:52;2.07;;;1.87;;
2488;SDS011;1255;48.716;9.124;2023-07-28T12:11:30;3.63;;;2.00;;
2488;SDS011;1255;48.716;9.124;2023-07-28T12:13:57;2.27;;;2.07;;
2488;SDS011;1255;48.716;9.124;2023-07-28T12:16:31;2.70;;;2.43;;
2488;SDS011;1255;48.716;9.124;2023-07-28T12:19:06;2.27;;;2.00;;
2488;SDS011;1255;48.716;9.124;2023-07-28T12:21:33;2.13;;;1.93;;
2488;SDS011;1255;48.716;9.124;2023-07-28T12:23:59;2.20;;;2.00;;
2488;SDS011;1255;48.716;9.124;2023-07-28T12:26:26;2.53;;;2.00;;
2488;SDS011;1255;48.716;9.124;2023-07-28T12:28:53;2.50;;;2.03;;
2488;SDS011;1255;48.716;9.124;2023-07-28T12:31:20;2.27;;;2.07;;
2488;SDS011;1255;48.716;9.124;2023-07-28T12:33:46;2.63;;;2.33;;
2488;SDS011;1255;48.716;9.124;2023-07-28T12:36:14;2.63;;;2.43;;
2488;SDS011;1255;48.716;9.124;2023-07-28T12:38:42;2.40;;;2.20;;
2488;SDS011;1255;48.716;9.124;2023-07-28T12:41:08;2.87;;;2.57;;
2488;SDS011;1255;48.716;9.124;2023-07-28T12:43:35;2.67;;;2.40;;
2488;SDS011;1255;48.716;9.124;2023-07-28T12:46:02;2.60;;;2.40;;
2488;SDS011;1255;48.716;9.124;2023-07-28T12:48:29;2.23;;;2.03;;
2488;SDS011;1255;48.716;9.124;2023-07-28T12:50:56;3.53;;;2.30;;
2488;SDS011;1255;48.716;9.124;2023-07-28T12:53:24;2.60;;;2.40;;
2488;SDS011;1255;48.716;9.124;2023-07-28T12:55:51;2.07;;;1.87;;
2488;SDS011;1255;48.716;9.124;2023-07-28T12:58:18;2.43;;;2.23;;
2488;SDS011;1255;48.716;9.124;2023-07-28T13:00:45;2.70;;;2.43;;
2488;SDS011;1255;48.716;9.124;2023-07-28T13:03:11;3.37;;;2.60;;
2488;SDS011;1255;48.716;9.124;2023-07-28T13:05:38;2.93;;;2.40;;
2488;SDS011;1255;48.716;9.124;2023-07-28T13:08:08;3.10;;;2.63;;
2488;SDS011;1255;48.716;9.124;2023-07-28T13:10:36;3.00;;;2.80;;
2488;SDS011;1255;48.716;9.124;2023-07-28T13:13:03;3.77;;;2.50;;
2488;SDS011;1255;48.716;9.124;2023-07-28T13:15:29;3.10;;;2.77;;
2488;SDS011;1255;48.716;9.124;2023-07-28T13:17:56;2.80;;;2.53;;
2488;SDS011;1255;48.716;9.124;2023-07-28T13:20:23;2.27;;;2.07;;
2488;SDS011;1255;48.716;9.124;2023-07-28T13:22:49;2.73;;;1.83;;
2488;SDS011;1255;48.716;9.124;2023-07-28T13:25:16;2.60;;;2.30;;
2488;SDS011;1255;48.716;9.124;2023-07-28T13:27:44;2.53;;;2.33;;
2488;SDS011;1255;48.716;9.124;2023-07-28T13:30:11;2.70;;;2.50;;
2488;SDS011;1255;48.716;9.124;2023-07-28T13:32:39;3.27;;;2.83;;
2488;SDS011;1255;48.716;9.124;2023-07-28T13:35:06;3.97;;;2.87;;
2488;SDS011;1255;48.716;9.124;2023-07-28T13:37:33;3.03;;;2.47;;
2488;SDS011;1255;48.716;9.124;2023-07-28T13:40:00;2.10;;;1.90;;
2488;SDS011;1255;48.716;9.124;2023-07-28T13:42:27;3.33;;;2.77;;
2488;SDS011;1255;48.716;9.124;2023-07-28T13:44:55;3.03;;;2.67;;
2488;SDS011;1255;48.716;9.124;2023-07-28T13:47:22;3.40;;;3.10;;
2488;SDS011;1255;48.716;9.124;2023-07-28T13:49:48;3.00;;;2.70;;
2488;SDS011;1255;48.716;9.124;2023-07-28T13:52:15;5.00;;;2.47;;
2488;SDS011;1255;48.716;9.124;2023-07-28T13:54:42;4.20;;;2.73;;
2488;SDS011;1255;48.716;9.124;2023-07-28T13:57:09;3.30;;;2.77;;
2488;SDS011;1255;48.716;9.124;2023-07-28T13:59:36;2.60;;;2.33;;
2488;SDS011;1255;48.716;9.124;2023-07-28T14:02:05;2.57;;;1.77;;
2488;SDS011;1255;48.716;9.124;2023-07-28T14:04:32;2.77;;;2.47;;
2488;SDS011;1255;48.716;9.124;2023-07-28T14:06:58;2.47;;;2.17;;
2488;SDS011;1255;48.716;9.124;2023-07-28T14:09:25;2.63;;;2.40;;
2488;SDS011;1255;48.716;9.124;2023-07-28T14:11:52;2.70;;;2.10;;
2488;SDS011;1255;48.716;9.124;2023-07-28T14:14:18;3.10;;;2.33;;
2488;SDS011;1255;48.716;9.124;2023-07-28T14:16:45;3.07;;;2.60;;
2488;SDS011;1255;48.716;9.124;2023-07-28T14:19:13;2.60;;;2.30;;
2488;SDS011;1255;48.716;9.124;2023-07-28T14:21:40;3.37;;;2.47;;
2488;SDS011;1255;48.716;9.124;2023-07-28T14:24:07;2.50;;;2.30;;
2488;SDS011;1255;48.716;9.124;2023-07-28T14:26:33;2.67;;;2.47;;
2488;SDS011;1255;48.716;9.124;2023-07-28T14:29:00;6.37;;;2.80;;
2488;SDS011;1255;48.716;9.124;2023-07-28T14:31:27;3.30;;;2.63;;
2488;SDS011;1255;48.716;9.124;2023-07-28T14:33:53;3.33;;;2.37;;
2488;SDS011;1255;48.716;9.124;2023-07-28T14:36:21;2.57;;;2.37;;
2488;SDS011;1255;48.716;9.124;2023-07-28T14:38:48;2.60;;;2.17;;
2488;SDS011;1255;48.716;9.124;2023-07-28T14:41:15;2.83;;;2.13;;
2488;SDS011;1255;48.716;9.124;2023-07-28T14:43:42;3.77;;;2.70;;
2488;SDS011;1255;48.716;9.124;2023-07-28T14:46:09;3.00;;;2.63;;
2488;SDS011;1255;48.716;9.124;2023-07-28T14:48:36;3.87;;;2.80;;
2488;SDS011;1255;48.716;9.124;2023-07-28T14:51:02;2.63;;;2.40;;
2488;SDS011;1255;48.716;9.124;2023-07-28T14:53:31;2.60;;;2.00;;
2488;SDS011;1255;48.716;9.124;2023-07-28T14:55:59;3.07;;;2.37;;
2488;SDS011;1255;48.716;9.124;2023-07-28T14:58:27;2.60;;;2.40;;
2488;SDS011;1255;48.716;9.124;2023-07-28T15:00:54;4.07;;;3.07;;
2488;SDS011;1255;48.716;9.124;2023-07-28T15:03:21;3.33;;;2.97;;
2488;SDS011;1255;48.716;9.124;2023-07-28T15:05:48;3.23;;;2.70;;
2488;SDS011;1255;48.716;9.124;2023-07-28T15:08:15;2.77;;;2.50;;
2488;SDS011;1255;48.716;9.124;2023-07-28T15:10:43;3.50;;;2.57;;
2488;SDS011;1255;48.716;9.124;2023-07-28T15:13:10;4.30;;;2.90;;
2488;SDS011;1255;48.716;9.124;2023-07-28T15:15:37;2.70;;;2.50;;
2488;SDS011;1255;48.716;9.124;2023-07-28T15:18:04;3.60;;;3.10;;
2488;SDS011;1255;48.716;9.124;2023-07-28T15:20:30;3.97;;;3.00;;
2488;SDS011;1255;48.716;9.124;2023-07-28T15:22:57;2.93;;;2.67;;
2488;SDS011;1255;48.716;9.124;2023-07-28T15:25:24;4.60;;;3.40;;
2488;SDS011;1255;48.716;9.124;2023-07-28T15:27:52;2.90;;;2.60;;
2488;SDS011;1255;48.716;9.124;2023-07-28T15:30:19;4.43;;;3.33;;
2488;SDS011;1255;48.716;9.124;2023-07-28T15:32:46;2.87;;;2.50;;
2488;SDS011;1255;48.716;9.124;2023-07-28T15:35:13;3.40;;;3.10;;
2488;SDS011;1255;48.716;9.124;2023-07-28T15:37:39;4.80;;;3.33;;
2488;SDS011;1255;48.716;9.124;2023-07-28T15:40:06;5.40;;;3.17;;